Granville, NY (12832)

5:09 AM EDT on July 25, 2016 (GMT -0400)
Granville | | Change Station

Elev 449 ft 43.39 °N, 73.27 °W | Updated 1 minute ago

Clear
Clear
60.2 °F
Feels Like 60.2 °F
N
0.0
Wind Variable Wind from SW
Gusts 1.0 mph

Today
High -- | Low -- °F
--% Chance of Precip.
Yesterday
High -- | Low -- °F
Precip. -- in
Pressure 29.93 in
Visibility 3.0 miles
Clouds Clear
Dew Point 59 °F
Humidity 97%
Rainfall 0.00 in
Snow Depth Not available.
5:36 AM 8:22 PM
Waning Gibbous, 68% visible
SPECI KGFL 250859Z AUTO 00000KT 3SM BR CLR 18/16 A2993 RMK AO2 T01780161
Pressure 29.93 in
Visibility 3.0 miles
Clouds Clear
Dew Point 59 °F
Humidity 97%
Rainfall 0.00 in
Snow Depth Not available.
5:36 AM 8:22 PM
Waning Gibbous, 68% visible
SPECI KGFL 250859Z AUTO 00000KT 3SM BR CLR 18/16 A2993 RMK AO2 T01780161

10-Day Weather Forecast

Almanac

Astronomy

Jul. 25, 2016 Rise Set
Actual Time
Civil Twilight
Nautical Twilight
Astronomical Twilight
Moon
Length of Visible Light
Length of Day
Tomorrow will be .
, % of the Moon is Illuminated

Today's Extremes

State Highs State Lows

Community

WunderPhotos

Upload Photos

1,927,274 photos uploaded!

WunderBlog® & News

Nearby

Air Quality

  Air Quality AQ Index Pollutant
Not available.

Snow Depth

Station Depth Elevation

Earthquake Activity

City Distance Mag. Time & Date
Minimum magnitude displayed is 2.5.

Coastal Water Temperatures

Place Temperature

Stations

Nearby Weather Stations

Station Location Temp. Windchill Dew Point Humidity Wind Precip. Elev Updated Type
                   

Watches & Warnings

There are currently no watches in effect.